Here is the Quick Look data you requested

The Data originates at the National Weather Service, and is made available here by the UAlbany Department of Atmospheric and Environmental Sciences

Surface Observations

KCVG 240752Z 19004KT 10SM FEW110 BKN150 07/M06 A3023 RMK AO2 SLP235 T00721061=
KCVG 240852Z 00000KT 10SM FEW140 BKN160 OVC200 05/M03 A3022 RMK AO2 SLP233
 BINOVC T00501028 56004=
KCVG 240952Z 13004KT 10SM BKN130 OVC150 06/M04 A3020 RMK AO2 SLP227 T00611039=
KCVG 241052Z 13004KT 10SM OVC140 07/M06 A3019 RMK AO2 SLP221 T00671061=
KCVG 241152Z 18006KT 10SM BKN130 OVC140 07/M06 A3019 RMK AO2 SLP223 T00721056
 10072 20039 55010=
KCVG 241252Z 17005KT 10SM BKN120 OVC130 08/M04 A3019 RMK AO2 SLP221 T00781044=
KCVG 241352Z 18005KT 10SM BKN120 OVC130 09/M05 A3019 RMK AO2 SLP224 T00941050=
KCVG 241452Z 19005KT 10SM BKN130 OVC150 11/M06 A3020 RMK AO2 SLP226 T01111056
 53003=
KCVG 241552Z 24004KT 10SM BKN110 OVC130 13/M06 A3018 RMK AO2 SLP220 OCNL BINOVC
 T01281061=
KCVG 241652Z 22007KT 10SM SCT110 OVC150 16/M07 A3015 RMK AO2 SLP210 T01561067=
KCVG 241752Z VRB06KT 10SM BKN110 OVC150 16/M07 A3014 RMK AO2 SLP203 T01561067
 10161 20067 58021=
KCVG 241852Z 20007KT 10SM OVC085 16/M05 A3012 RMK AO2 SLP198 VIRGA OHD-ALQDS
 T01561050=
KCVG 241952Z 23012KT 10SM -RA OVC070 16/M01 A3011 RMK AO2 RAB42 SLP194 PCPN VRY
 LGT P0000 T01561011=
KCVG 242052Z 14004KT 10SM -RA OVC055 12/07 A3009 RMK AO2 SLP190 P0002 60002
 T01170067 58014=
KCVG 242152Z 17003KT 10SM -RA OVC060 11/07 A3008 RMK AO2 SLP184 P0001 T01060067=
KCVG 242252Z 12006KT 10SM -RA BKN039 OVC050 10/08 A3005 RMK AO2 SLP176 P0003
 T01000078=
KCVG 242352Z 08004KT 10SM SCT050 BKN060 OVC095 10/07 A3004 RMK AO2 RAE2257
 SLP173 BINOVC OHD P0000 60006 T01000072 10161 20100 56016=
KCVG 250052Z 19003KT 10SM OVC033 10/07 A3005 RMK AO2 SLP174 T01000072=
KCVG 250152Z 14004KT 10SM OVC031 11/07 A3005 RMK AO2 SLP173 T01060072=
KCVG 250252Z 13003KT 10SM OVC033 11/08 A3004 RMK AO2 SLP170 T01060078 58003=
KCVG 250352Z 07005KT 10SM FEW043 SCT050 SCT080 OVC200 10/07 A3002 RMK AO2
 SLP164 T01000072=
KCVG 250452Z 07004KT 10SM FEW041 OVC150 10/07 A3001 RMK AO2 LTG DSNT SW SLP160
 T01000072 401610039=
KCVG 250552Z 30008KT 4SM +RA BR BKN043 OVC060 09/08 A3004 RMK AO2 RAB31 SLP170
 P0004 60004 T00940078 10111 20094 53001=
KCVG 250610Z 00000KT 2SM +RA BR BKN049 OVC060 09/08 A3004 RMK AO2 P0008
 T00940083=
KCVG 250616Z VRB05KT 5SM RA BR FEW025 BKN050 OVC060 09/08 A3004 RMK AO2 P0010
 T00940083=
KCVG 250652Z 00000KT 3SM R18C/4500VP6000FT +RA BR FEW021 BKN037 OVC045 09/08
 A3003 RMK AO2 SLP167 P0020 T00940083=
KCVG 250752Z 06009KT 3SM -RA BR OVC060 09/08 A2998 RMK AO2 SLP151 P0011
 T00940083=